sensor_id;sensor_type;location;lat;lon;timestamp;pressure;altitude;pressure_sealevel;temperature;humidity
22550;BME280;11441;57.164;-2.120;2023-06-01T00:00:09;102508.22;;;12.47;100.00
22550;BME280;11441;57.164;-2.120;2023-06-01T00:02:40;102515.84;;;12.41;100.00
22550;BME280;11441;57.164;-2.120;2023-06-01T00:05:08;102524.28;;;12.27;100.00
22550;BME280;11441;57.164;-2.120;2023-06-01T00:07:35;102503.50;;;12.30;100.00
22550;BME280;11441;57.164;-2.120;2023-06-01T00:10:20;102512.44;;;12.35;100.00
22550;BME280;11441;57.164;-2.120;2023-06-01T00:12:47;102513.88;;;12.24;100.00
22550;BME280;11441;57.164;-2.120;2023-06-01T00:15:14;102513.25;;;12.36;100.00
22550;BME280;11441;57.164;-2.120;2023-06-01T00:17:41;102504.16;;;12.44;100.00
22550;BME280;11441;57.164;-2.120;2023-06-01T00:20:08;102500.38;;;12.40;100.00
22550;BME280;11441;57.164;-2.120;2023-06-01T00:22:35;102506.25;;;12.30;100.00
22550;BME280;11441;57.164;-2.120;2023-06-01T00:25:07;102503.66;;;12.24;100.00
22550;BME280;11441;57.164;-2.120;2023-06-01T00:27:35;102506.91;;;12.35;100.00
22550;BME280;11441;57.164;-2.120;2023-06-01T00:30:02;102510.16;;;12.37;100.00
22550;BME280;11441;57.164;-2.120;2023-06-01T00:32:29;102512.09;;;12.19;100.00
22550;BME280;11441;57.164;-2.120;2023-06-01T00:34:56;102508.31;;;12.15;100.00
22550;BME280;11441;57.164;-2.120;2023-06-01T00:37:24;102505.72;;;12.10;100.00
22550;BME280;11441;57.164;-2.120;2023-06-01T00:39:51;102509.94;;;12.07;100.00
22550;BME280;11441;57.164;-2.120;2023-06-01T00:42:18;102508.28;;;11.98;100.00
22550;BME280;11441;57.164;-2.120;2023-06-01T00:44:45;102508.50;;;12.19;100.00
22550;BME280;11441;57.164;-2.120;2023-06-01T00:47:12;102510.72;;;11.99;100.00
22550;BME280;11441;57.164;-2.120;2023-06-01T00:49:39;102510.88;;;11.94;100.00
22550;BME280;11441;57.164;-2.120;2023-06-01T00:52:06;102517.81;;;11.83;100.00
22550;BME280;11441;57.164;-2.120;2023-06-01T00:54:54;102515.00;;;11.74;100.00
22550;BME280;11441;57.164;-2.120;2023-06-01T00:57:22;102504.28;;;11.73;100.00
22550;BME280;11441;57.164;-2.120;2023-06-01T00:59:53;102510.97;;;11.80;100.00
22550;BME280;11441;57.164;-2.120;2023-06-01T01:02:21;102509.66;;;11.78;100.00
22550;BME280;11441;57.164;-2.120;2023-06-01T01:05:08;102512.84;;;11.94;100.00
22550;BME280;11441;57.164;-2.120;2023-06-01T01:08:21;102506.19;;;11.63;100.00
22550;BME280;11441;57.164;-2.120;2023-06-01T01:11:13;102495.31;;;11.58;100.00
22550;BME280;11441;57.164;-2.120;2023-06-01T01:13:48;102502.78;;;11.66;100.00
22550;BME280;11441;57.164;-2.120;2023-06-01T01:16:34;102501.97;;;11.66;100.00
22550;BME280;11441;57.164;-2.120;2023-06-01T01:21:38;102506.53;;;11.62;100.00
22550;BME280;11441;57.164;-2.120;2023-06-01T01:29:31;102507.66;;;11.61;100.00
22550;BME280;11441;57.164;-2.120;2023-06-01T01:32:00;102503.91;;;11.57;100.00
22550;BME280;11441;57.164;-2.120;2023-06-01T01:34:30;102515.06;;;11.51;100.00
22550;BME280;11441;57.164;-2.120;2023-06-01T01:36:58;102506.50;;;11.53;100.00
22550;BME280;11441;57.164;-2.120;2023-06-01T01:39:25;102511.03;;;11.58;100.00
22550;BME280;11441;57.164;-2.120;2023-06-01T01:41:52;102513.09;;;11.43;100.00
22550;BME280;11441;57.164;-2.120;2023-06-01T01:44:37;102492.50;;;11.49;100.00
22550;BME280;11441;57.164;-2.120;2023-06-01T01:49:59;102494.69;;;11.07;100.00
22550;BME280;11441;57.164;-2.120;2023-06-01T01:52:35;102498.53;;;11.20;100.00
22550;BME280;11441;57.164;-2.120;2023-06-01T01:55:08;102497.38;;;11.21;100.00
22550;BME280;11441;57.164;-2.120;2023-06-01T01:57:36;102505.78;;;11.16;100.00
22550;BME280;11441;57.164;-2.120;2023-06-01T02:00:07;102500.72;;;11.09;100.00
22550;BME280;11441;57.164;-2.120;2023-06-01T02:02:40;102504.97;;;11.16;100.00
22550;BME280;11441;57.164;-2.120;2023-06-01T02:05:08;102500.22;;;11.07;100.00
22550;BME280;11441;57.164;-2.120;2023-06-01T02:07:35;102496.34;;;10.86;100.00
22550;BME280;11441;57.164;-2.120;2023-06-01T02:10:04;102497.34;;;10.90;100.00
22550;BME280;11441;57.164;-2.120;2023-06-01T02:12:32;102495.97;;;11.01;100.00
22550;BME280;11441;57.164;-2.120;2023-06-01T02:14:59;102495.22;;;10.87;100.00
22550;BME280;11441;57.164;-2.120;2023-06-01T02:17:26;102504.00;;;10.89;100.00
22550;BME280;11441;57.164;-2.120;2023-06-01T02:20:12;102496.84;;;10.88;100.00
22550;BME280;11441;57.164;-2.120;2023-06-01T02:22:58;102497.72;;;10.74;100.00
22550;BME280;11441;57.164;-2.120;2023-06-01T02:25:25;102492.47;;;10.87;100.00
22550;BME280;11441;57.164;-2.120;2023-06-01T02:27:52;102493.47;;;10.91;100.00
22550;BME280;11441;57.164;-2.120;2023-06-01T02:30:19;102489.31;;;10.80;100.00
22550;BME280;11441;57.164;-2.120;2023-06-01T02:32:46;102497.03;;;10.91;100.00
22550;BME280;11441;57.164;-2.120;2023-06-01T02:35:15;102491.56;;;10.78;100.00
22550;BME280;11441;57.164;-2.120;2023-06-01T02:38:01;102493.22;;;10.79;100.00
22550;BME280;11441;57.164;-2.120;2023-06-01T02:40:28;102477.97;;;10.81;100.00
22550;BME280;11441;57.164;-2.120;2023-06-01T02:42:55;102481.69;;;10.77;100.00
22550;BME280;11441;57.164;-2.120;2023-06-01T02:45:22;102478.41;;;10.97;100.00
22550;BME280;11441;57.164;-2.120;2023-06-01T02:47:49;102482.44;;;10.91;100.00
22550;BME280;11441;57.164;-2.120;2023-06-01T02:50:17;102479.81;;;10.86;100.00
22550;BME280;11441;57.164;-2.120;2023-06-01T02:52:47;102479.38;;;10.92;100.00
22550;BME280;11441;57.164;-2.120;2023-06-01T02:55:15;102479.69;;;10.91;100.00
22550;BME280;11441;57.164;-2.120;2023-06-01T02:57:55;102477.53;;;11.10;100.00
22550;BME280;11441;57.164;-2.120;2023-06-01T03:00:22;102485.19;;;10.91;100.00
22550;BME280;11441;57.164;-2.120;2023-06-01T03:02:49;102474.41;;;10.81;100.00
22550;BME280;11441;57.164;-2.120;2023-06-01T03:05:16;102484.56;;;10.94;100.00
22550;BME280;11441;57.164;-2.120;2023-06-01T03:08:04;102478.47;;;10.83;100.00
22550;BME280;11441;57.164;-2.120;2023-06-01T03:10:51;102476.19;;;10.77;100.00
22550;BME280;11441;57.164;-2.120;2023-06-01T03:13:23;102472.72;;;10.71;100.00
22550;BME280;11441;57.164;-2.120;2023-06-01T03:15:51;102490.28;;;10.75;100.00
22550;BME280;11441;57.164;-2.120;2023-06-01T03:18:18;102489.84;;;10.82;100.00
22550;BME280;11441;57.164;-2.120;2023-06-01T03:21:05;102473.38;;;10.68;100.00
22550;BME280;11441;57.164;-2.120;2023-06-01T03:23:33;102477.59;;;10.74;100.00
22550;BME280;11441;57.164;-2.120;2023-06-01T03:26:19;102470.88;;;10.80;100.00
22550;BME280;11441;57.164;-2.120;2023-06-01T03:28:47;102478.94;;;10.99;100.00
22550;BME280;11441;57.164;-2.120;2023-06-01T03:31:14;102485.25;;;10.77;100.00
22550;BME280;11441;57.164;-2.120;2023-06-01T03:33:43;102478.34;;;10.88;100.00
22550;BME280;11441;57.164;-2.120;2023-06-01T03:36:11;102484.38;;;10.68;100.00
22550;BME280;11441;57.164;-2.120;2023-06-01T03:38:38;102478.81;;;10.82;100.00
22550;BME280;11441;57.164;-2.120;2023-06-01T03:41:05;102469.41;;;10.83;100.00
22550;BME280;11441;57.164;-2.120;2023-06-01T03:43:33;102472.41;;;10.95;100.00
22550;BME280;11441;57.164;-2.120;2023-06-01T03:46:00;102470.28;;;10.92;100.00
22550;BME280;11441;57.164;-2.120;2023-06-01T03:48:27;102470.22;;;10.83;100.00
22550;BME280;11441;57.164;-2.120;2023-06-01T03:50:55;102477.53;;;10.88;100.00
22550;BME280;11441;57.164;-2.120;2023-06-01T03:53:22;102473.50;;;10.85;100.00
22550;BME280;11441;57.164;-2.120;2023-06-01T03:55:49;102469.47;;;10.91;100.00
22550;BME280;11441;57.164;-2.120;2023-06-01T03:58:31;102465.03;;;10.82;100.00
22550;BME280;11441;57.164;-2.120;2023-06-01T04:00:58;102470.38;;;10.78;100.00
22550;BME280;11441;57.164;-2.120;2023-06-01T04:03:28;102472.91;;;10.74;100.00
22550;BME280;11441;57.164;-2.120;2023-06-01T04:05:55;102467.00;;;10.90;100.00
22550;BME280;11441;57.164;-2.120;2023-06-01T04:08:26;102462.03;;;10.92;100.00
22550;BME280;11441;57.164;-2.120;2023-06-01T04:10:53;102469.28;;;10.88;100.00
22550;BME280;11441;57.164;-2.120;2023-06-01T04:13:21;102474.28;;;10.86;100.00
22550;BME280;11441;57.164;-2.120;2023-06-01T04:15:48;102471.66;;;10.81;100.00
22550;BME280;11441;57.164;-2.120;2023-06-01T04:18:19;102472.53;;;10.67;100.00
22550;BME280;11441;57.164;-2.120;2023-06-01T04:20:54;102469.16;;;10.70;100.00
22550;BME280;11441;57.164;-2.120;2023-06-01T04:23:22;102467.47;;;10.61;100.00
22550;BME280;11441;57.164;-2.120;2023-06-01T04:25:49;102462.66;;;10.66;100.00
22550;BME280;11441;57.164;-2.120;2023-06-01T04:28:20;102462.03;;;10.69;100.00
22550;BME280;11441;57.164;-2.120;2023-06-01T04:30:48;102461.56;;;10.76;100.00
22550;BME280;11441;57.164;-2.120;2023-06-01T04:33:18;102469.31;;;10.51;100.00
22550;BME280;11441;57.164;-2.120;2023-06-01T04:35:46;102466.22;;;10.67;100.00
22550;BME280;11441;57.164;-2.120;2023-06-01T04:38:13;102475.59;;;10.66;100.00
22550;BME280;11441;57.164;-2.120;2023-06-01T04:40:47;102468.72;;;10.77;100.00
22550;BME280;11441;57.164;-2.120;2023-06-01T04:43:14;102469.47;;;10.69;100.00
22550;BME280;11441;57.164;-2.120;2023-06-01T04:45:46;102466.94;;;10.59;100.00
22550;BME280;11441;57.164;-2.120;2023-06-01T04:48:13;102467.59;;;10.78;100.00
22550;BME280;11441;57.164;-2.120;2023-06-01T04:50:55;102471.91;;;10.70;100.00
22550;BME280;11441;57.164;-2.120;2023-06-01T04:53:41;102464.38;;;10.62;100.00
22550;BME280;11441;57.164;-2.120;2023-06-01T04:56:08;102473.13;;;10.78;100.00
22550;BME280;11441;57.164;-2.120;2023-06-01T04:58:53;102467.31;;;10.43;100.00
22550;BME280;11441;57.164;-2.120;2023-06-01T05:01:25;102473.06;;;10.33;100.00
22550;BME280;11441;57.164;-2.120;2023-06-01T05:03:53;102463.75;;;10.43;100.00
22550;BME280;11441;57.164;-2.120;2023-06-01T05:06:22;102464.97;;;10.50;100.00
22550;BME280;11441;57.164;-2.120;2023-06-01T05:08:49;102480.19;;;10.34;100.00
22550;BME280;11441;57.164;-2.120;2023-06-01T05:11:17;102456.34;;;10.29;100.00
22550;BME280;11441;57.164;-2.120;2023-06-01T05:13:44;102470.00;;;10.34;100.00
22550;BME280;11441;57.164;-2.120;2023-06-01T05:16:12;102454.59;;;10.33;100.00
22550;BME280;11441;57.164;-2.120;2023-06-01T05:18:39;102475.06;;;10.27;100.00
22550;BME280;11441;57.164;-2.120;2023-06-01T05:21:08;102466.94;;;10.36;100.00
22550;BME280;11441;57.164;-2.120;2023-06-01T05:23:53;102472.34;;;10.13;100.00
22550;BME280;11441;57.164;-2.120;2023-06-01T05:26:22;102474.28;;;10.27;100.00
22550;BME280;11441;57.164;-2.120;2023-06-01T05:28:49;102470.09;;;10.29;100.00
22550;BME280;11441;57.164;-2.120;2023-06-01T05:31:16;102478.88;;;10.17;100.00
22550;BME280;11441;57.164;-2.120;2023-06-01T05:33:48;102479.78;;;10.41;100.00
22550;BME280;11441;57.164;-2.120;2023-06-01T05:36:16;102483.78;;;10.57;100.00
22550;BME280;11441;57.164;-2.120;2023-06-01T05:38:43;102479.66;;;10.46;100.00
22550;BME280;11441;57.164;-2.120;2023-06-01T05:41:11;102475.03;;;10.55;100.00
22550;BME280;11441;57.164;-2.120;2023-06-01T05:43:39;102474.78;;;10.29;100.00
22550;BME280;11441;57.164;-2.120;2023-06-01T05:46:07;102476.34;;;10.21;100.00
22550;BME280;11441;57.164;-2.120;2023-06-01T05:48:35;102474.78;;;10.43;100.00
22550;BME280;11441;57.164;-2.120;2023-06-01T05:51:06;102478.22;;;10.48;100.00
22550;BME280;11441;57.164;-2.120;2023-06-01T05:53:33;102475.06;;;10.41;100.00
22550;BME280;11441;57.164;-2.120;2023-06-01T05:56:01;102470.94;;;10.16;100.00
22550;BME280;11441;57.164;-2.120;2023-06-01T05:58:29;102469.03;;;10.53;100.00
22550;BME280;11441;57.164;-2.120;2023-06-01T06:00:57;102466.00;;;10.41;100.00
22550;BME280;11441;57.164;-2.120;2023-06-01T06:03:24;102460.19;;;10.28;100.00
22550;BME280;11441;57.164;-2.120;2023-06-01T06:05:52;102460.19;;;10.28;100.00
22550;BME280;11441;57.164;-2.120;2023-06-01T06:08:19;102467.31;;;10.43;100.00
22550;BME280;11441;57.164;-2.120;2023-06-01T06:10:46;102466.50;;;10.43;100.00
22550;BME280;11441;57.164;-2.120;2023-06-01T06:13:14;102470.22;;;10.38;100.00
22550;BME280;11441;57.164;-2.120;2023-06-01T06:15:41;102469.56;;;10.27;100.00
22550;BME280;11441;57.164;-2.120;2023-06-01T06:18:08;102466.13;;;10.22;100.00
22550;BME280;11441;57.164;-2.120;2023-06-01T06:20:35;102475.91;;;10.42;100.00
22550;BME280;11441;57.164;-2.120;2023-06-01T06:23:02;102463.38;;;10.22;100.00
22550;BME280;11441;57.164;-2.120;2023-06-01T06:25:29;102464.56;;;10.43;100.00
22550;BME280;11441;57.164;-2.120;2023-06-01T06:27:56;102466.00;;;10.27;100.00
22550;BME280;11441;57.164;-2.120;2023-06-01T06:30:23;102467.56;;;10.33;100.00
22550;BME280;11441;57.164;-2.120;2023-06-01T06:32:51;102472.44;;;10.36;100.00
22550;BME280;11441;57.164;-2.120;2023-06-01T06:35:18;102477.28;;;10.53;100.00
22550;BME280;11441;57.164;-2.120;2023-06-01T06:37:45;102465.53;;;10.61;100.00
22550;BME280;11441;57.164;-2.120;2023-06-01T06:40:12;102478.28;;;10.80;100.00
22550;BME280;11441;57.164;-2.120;2023-06-01T06:42:40;102475.88;;;10.55;100.00
22550;BME280;11441;57.164;-2.120;2023-06-01T06:45:44;102470.44;;;10.87;100.00
22550;BME280;11441;57.164;-2.120;2023-06-01T06:48:11;102465.91;;;10.91;100.00
22550;BME280;11441;57.164;-2.120;2023-06-01T06:50:39;102480.53;;;11.00;100.00
22550;BME280;11441;57.164;-2.120;2023-06-01T06:53:11;102479.06;;;10.94;100.00
22550;BME280;11441;57.164;-2.120;2023-06-01T06:55:38;102484.69;;;10.89;100.00
22550;BME280;11441;57.164;-2.120;2023-06-01T06:58:05;102483.91;;;10.97;100.00
22550;BME280;11441;57.164;-2.120;2023-06-01T07:00:50;102487.66;;;10.92;100.00
22550;BME280;11441;57.164;-2.120;2023-06-01T07:03:17;102486.56;;;10.80;100.00
22550;BME280;11441;57.164;-2.120;2023-06-01T07:05:44;102493.72;;;10.81;100.00
22550;BME280;11441;57.164;-2.120;2023-06-01T07:08:14;102481.63;;;10.90;100.00
22550;BME280;11441;57.164;-2.120;2023-06-01T07:10:41;102492.47;;;10.87;100.00
22550;BME280;11441;57.164;-2.120;2023-06-01T07:13:08;102489.59;;;10.92;100.00
22550;BME280;11441;57.164;-2.120;2023-06-01T07:15:35;102488.25;;;11.12;100.00
22550;BME280;11441;57.164;-2.120;2023-06-01T07:18:02;102494.19;;;11.05;100.00
22550;BME280;11441;57.164;-2.120;2023-06-01T07:20:29;102496.34;;;11.08;100.00
22550;BME280;11441;57.164;-2.120;2023-06-01T07:22:56;102499.03;;;11.22;100.00
22550;BME280;11441;57.164;-2.120;2023-06-01T07:25:23;102494.81;;;11.25;100.00
22550;BME280;11441;57.164;-2.120;2023-06-01T07:27:50;102485.31;;;11.08;100.00
22550;BME280;11441;57.164;-2.120;2023-06-01T07:30:36;102489.94;;;11.22;100.00
22550;BME280;11441;57.164;-2.120;2023-06-01T07:33:03;102492.22;;;11.28;100.00
22550;BME280;11441;57.164;-2.120;2023-06-01T07:35:49;102504.94;;;11.38;100.00
22550;BME280;11441;57.164;-2.120;2023-06-01T07:38:19;102493.56;;;11.08;100.00
22550;BME280;11441;57.164;-2.120;2023-06-01T07:40:46;102504.28;;;11.10;100.00
22550;BME280;11441;57.164;-2.120;2023-06-01T07:43:13;102503.63;;;11.04;100.00
22550;BME280;11441;57.164;-2.120;2023-06-01T07:45:40;102512.81;;;11.00;100.00
22550;BME280;11441;57.164;-2.120;2023-06-01T07:48:07;102498.47;;;10.89;100.00
22550;BME280;11441;57.164;-2.120;2023-06-01T07:50:36;102516.88;;;11.25;100.00
22550;BME280;11441;57.164;-2.120;2023-06-01T07:53:04;102518.50;;;11.26;100.00
22550;BME280;11441;57.164;-2.120;2023-06-01T07:55:31;102518.50;;;11.26;100.00
22550;BME280;11441;57.164;-2.120;2023-06-01T07:57:57;102530.53;;;11.07;100.00
22550;BME280;11441;57.164;-2.120;2023-06-01T08:00:25;102516.25;;;11.05;100.00
22550;BME280;11441;57.164;-2.120;2023-06-01T08:02:52;102528.41;;;11.27;100.00
22550;BME280;11441;57.164;-2.120;2023-06-01T08:05:20;102530.56;;;11.39;100.00
22550;BME280;11441;57.164;-2.120;2023-06-01T08:07:47;102530.09;;;11.14;100.00
22550;BME280;11441;57.164;-2.120;2023-06-01T08:10:16;102530.34;;;11.04;100.00
22550;BME280;11441;57.164;-2.120;2023-06-01T08:12:43;102534.13;;;11.30;100.00
22550;BME280;11441;57.164;-2.120;2023-06-01T08:15:10;102535.81;;;10.95;100.00
22550;BME280;11441;57.164;-2.120;2023-06-01T08:17:38;102545.47;;;10.84;100.00
22550;BME280;11441;57.164;-2.120;2023-06-01T08:20:05;102531.88;;;11.10;100.00
22550;BME280;11441;57.164;-2.120;2023-06-01T08:22:37;102533.75;;;11.01;100.00
22550;BME280;11441;57.164;-2.120;2023-06-01T08:25:05;102541.06;;;10.83;100.00
22550;BME280;11441;57.164;-2.120;2023-06-01T08:27:32;102531.00;;;11.01;100.00
22550;BME280;11441;57.164;-2.120;2023-06-01T08:30:17;102533.59;;;11.06;100.00
22550;BME280;11441;57.164;-2.120;2023-06-01T08:32:45;102536.59;;;11.09;100.00
22550;BME280;11441;57.164;-2.120;2023-06-01T08:35:11;102533.94;;;11.27;100.00
22550;BME280;11441;57.164;-2.120;2023-06-01T08:37:40;102535.22;;;11.29;100.00
22550;BME280;11441;57.164;-2.120;2023-06-01T08:40:07;102533.47;;;11.33;100.00
22550;BME280;11441;57.164;-2.120;2023-06-01T08:42:51;102538.22;;;11.42;100.00
22550;BME280;11441;57.164;-2.120;2023-06-01T08:45:24;102545.75;;;11.50;100.00
22550;BME280;11441;57.164;-2.120;2023-06-01T08:47:53;102538.25;;;11.19;100.00
22550;BME280;11441;57.164;-2.120;2023-06-01T08:50:21;102536.84;;;10.99;100.00
22550;BME280;11441;57.164;-2.120;2023-06-01T08:52:49;102531.63;;;10.98;100.00
22550;BME280;11441;57.164;-2.120;2023-06-01T08:55:19;102551.34;;;10.91;100.00
22550;BME280;11441;57.164;-2.120;2023-06-01T08:57:46;102545.97;;;10.86;100.00
22550;BME280;11441;57.164;-2.120;2023-06-01T09:00:13;102547.59;;;10.87;100.00
22550;BME280;11441;57.164;-2.120;2023-06-01T09:02:42;102545.59;;;11.01;100.00
22550;BME280;11441;57.164;-2.120;2023-06-01T09:05:10;102551.41;;;10.77;100.00
22550;BME280;11441;57.164;-2.120;2023-06-01T09:07:39;102547.78;;;10.90;100.00
22550;BME280;11441;57.164;-2.120;2023-06-01T09:10:06;102541.88;;;11.06;100.00
22550;BME280;11441;57.164;-2.120;2023-06-01T09:12:34;102529.56;;;11.03;100.00
22550;BME280;11441;57.164;-2.120;2023-06-01T09:15:09;102546.59;;;11.05;100.00
22550;BME280;11441;57.164;-2.120;2023-06-01T09:17:41;102538.19;;;11.10;100.00
22550;BME280;11441;57.164;-2.120;2023-06-01T09:20:13;102538.38;;;10.91;100.00
22550;BME280;11441;57.164;-2.120;2023-06-01T09:25:07;102543.34;;;11.03;100.00
22550;BME280;11441;57.164;-2.120;2023-06-01T09:27:50;102550.50;;;11.04;100.00
22550;BME280;11441;57.164;-2.120;2023-06-01T09:30:20;102554.69;;;11.02;100.00
22550;BME280;11441;57.164;-2.120;2023-06-01T09:32:47;102544.84;;;11.09;100.00
22550;BME280;11441;57.164;-2.120;2023-06-01T09:35:50;102546.75;;;11.31;100.00
22550;BME280;11441;57.164;-2.120;2023-06-01T09:38:36;102541.69;;;11.02;100.00
22550;BME280;11441;57.164;-2.120;2023-06-01T09:41:03;102546.53;;;10.97;100.00
22550;BME280;11441;57.164;-2.120;2023-06-01T09:43:34;102530.41;;;10.90;100.00
22550;BME280;11441;57.164;-2.120;2023-06-01T09:46:09;102537.16;;;10.98;100.00
22550;BME280;11441;57.164;-2.120;2023-06-01T09:48:36;102542.47;;;10.94;100.00
22550;BME280;11441;57.164;-2.120;2023-06-01T09:51:04;102531.56;;;11.11;100.00
22550;BME280;11441;57.164;-2.120;2023-06-01T09:53:49;102532.69;;;11.10;100.00
22550;BME280;11441;57.164;-2.120;2023-06-01T09:56:17;102532.19;;;11.08;100.00
22550;BME280;11441;57.164;-2.120;2023-06-01T09:58:44;102538.19;;;11.10;100.00
22550;BME280;11441;57.164;-2.120;2023-06-01T10:01:11;102533.72;;;11.23;100.00
22550;BME280;11441;57.164;-2.120;2023-06-01T10:03:42;102540.69;;;11.21;100.00
22550;BME280;11441;57.164;-2.120;2023-06-01T10:06:28;102534.06;;;11.22;100.00
22550;BME280;11441;57.164;-2.120;2023-06-01T10:09:15;102543.38;;;11.35;100.00
22550;BME280;11441;57.164;-2.120;2023-06-01T10:11:47;102540.53;;;11.48;100.00
22550;BME280;11441;57.164;-2.120;2023-06-01T10:14:15;102537.41;;;11.41;100.00
22550;BME280;11441;57.164;-2.120;2023-06-01T10:16:43;102543.94;;;11.23;100.00
22550;BME280;11441;57.164;-2.120;2023-06-01T10:19:28;102547.25;;;11.33;100.00
22550;BME280;11441;57.164;-2.120;2023-06-01T10:21:59;102542.34;;;11.53;100.00
22550;BME280;11441;57.164;-2.120;2023-06-01T10:24:27;102548.41;;;11.64;100.00
22550;BME280;11441;57.164;-2.120;2023-06-01T10:29:23;102550.59;;;11.44;100.00
22550;BME280;11441;57.164;-2.120;2023-06-01T10:31:50;102545.69;;;11.41;100.00
22550;BME280;11441;57.164;-2.120;2023-06-01T10:37:25;102556.81;;;11.27;100.00
22550;BME280;11441;57.164;-2.120;2023-06-01T10:39:52;102547.66;;;11.18;100.00
22550;BME280;11441;57.164;-2.120;2023-06-01T10:42:34;102548.09;;;11.11;100.00
22550;BME280;11441;57.164;-2.120;2023-06-01T10:45:01;102540.50;;;11.40;100.00
22550;BME280;11441;57.164;-2.120;2023-06-01T10:50:34;102548.91;;;11.35;100.00
22550;BME280;11441;57.164;-2.120;2023-06-01T10:53:28;102556.03;;;11.58;100.00
22550;BME280;11441;57.164;-2.120;2023-06-01T10:56:20;102558.16;;;11.70;100.00
22550;BME280;11441;57.164;-2.120;2023-06-01T11:01:45;102552.19;;;11.77;100.00
22550;BME280;11441;57.164;-2.120;2023-06-01T11:04:13;102557.81;;;11.63;100.00
22550;BME280;11441;57.164;-2.120;2023-06-01T11:07:34;102557.28;;;11.52;100.00
22550;BME280;11441;57.164;-2.120;2023-06-01T11:13:13;102558.88;;;11.44;100.00
22550;BME280;11441;57.164;-2.120;2023-06-01T11:19:00;102569.59;;;11.55;100.00
22550;BME280;11441;57.164;-2.120;2023-06-01T11:21:37;102564.34;;;11.67;100.00
22550;BME280;11441;57.164;-2.120;2023-06-01T11:24:14;102565.81;;;11.73;100.00
22550;BME280;11441;57.164;-2.120;2023-06-01T11:26:44;102568.56;;;11.73;100.00
22550;BME280;11441;57.164;-2.120;2023-06-01T11:31:54;102563.97;;;11.60;100.00
22550;BME280;11441;57.164;-2.120;2023-06-01T11:34:36;102561.91;;;11.65;100.00
22550;BME280;11441;57.164;-2.120;2023-06-01T11:37:15;102567.50;;;11.83;100.00
22550;BME280;11441;57.164;-2.120;2023-06-01T11:40:06;102564.97;;;11.64;100.00
22550;BME280;11441;57.164;-2.120;2023-06-01T11:42:35;102553.63;;;11.65;100.00
22550;BME280;11441;57.164;-2.120;2023-06-01T11:45:03;102569.22;;;11.70;100.00
22550;BME280;11441;57.164;-2.120;2023-06-01T11:47:31;102560.44;;;11.99;100.00
22550;BME280;11441;57.164;-2.120;2023-06-01T11:49:58;102567.03;;;11.89;100.00
22550;BME280;11441;57.164;-2.120;2023-06-01T11:52:26;102566.31;;;12.15;100.00
22550;BME280;11441;57.164;-2.120;2023-06-01T11:54:53;102562.44;;;12.16;100.00
22550;BME280;11441;57.164;-2.120;2023-06-01T11:57:28;102562.75;;;12.15;100.00
22550;BME280;11441;57.164;-2.120;2023-06-01T11:59:55;102571.47;;;11.99;100.00
22550;BME280;11441;57.164;-2.120;2023-06-01T12:02:24;102576.13;;;12.30;100.00
22550;BME280;11441;57.164;-2.120;2023-06-01T12:05:02;102575.72;;;11.97;100.00
22550;BME280;11441;57.164;-2.120;2023-06-01T12:07:47;102575.41;;;12.07;100.00
22550;BME280;11441;57.164;-2.120;2023-06-01T12:10:16;102571.66;;;12.03;100.00
22550;BME280;11441;57.164;-2.120;2023-06-01T12:12:44;102573.19;;;12.26;100.00
22550;BME280;11441;57.164;-2.120;2023-06-01T12:15:13;102576.28;;;12.25;100.00
22550;BME280;11441;57.164;-2.120;2023-06-01T12:17:50;102574.50;;;12.38;100.00
22550;BME280;11441;57.164;-2.120;2023-06-01T12:20:37;102579.00;;;12.07;100.00
22550;BME280;11441;57.164;-2.120;2023-06-01T12:25:56;102578.28;;;11.93;100.00
22550;BME280;11441;57.164;-2.120;2023-06-01T12:28:26;102570.66;;;11.99;100.00
22550;BME280;11441;57.164;-2.120;2023-06-01T12:31:16;102575.84;;;12.40;100.00
22550;BME280;11441;57.164;-2.120;2023-06-01T12:33:45;102574.06;;;12.53;100.00
22550;BME280;11441;57.164;-2.120;2023-06-01T12:36:34;102569.16;;;12.50;100.00
22550;BME280;11441;57.164;-2.120;2023-06-01T12:39:39;102579.56;;;12.36;100.00
22550;BME280;11441;57.164;-2.120;2023-06-01T12:42:09;102582.81;;;12.47;100.00
22550;BME280;11441;57.164;-2.120;2023-06-01T12:44:38;102574.16;;;12.22;100.00
22550;BME280;11441;57.164;-2.120;2023-06-01T12:47:08;102582.94;;;12.24;100.00
22550;BME280;11441;57.164;-2.120;2023-06-01T12:49:35;102586.31;;;12.12;100.00
22550;BME280;11441;57.164;-2.120;2023-06-01T12:52:04;102588.56;;;12.10;100.00
22550;BME280;11441;57.164;-2.120;2023-06-01T12:54:31;102586.59;;;12.02;100.00
22550;BME280;11441;57.164;-2.120;2023-06-01T12:56:58;102588.41;;;12.15;100.00
22550;BME280;11441;57.164;-2.120;2023-06-01T12:59:25;102590.81;;;11.99;100.00
22550;BME280;11441;57.164;-2.120;2023-06-01T13:01:53;102584.66;;;12.02;100.00
22550;BME280;11441;57.164;-2.120;2023-06-01T13:04:20;102577.34;;;12.06;100.00
22550;BME280;11441;57.164;-2.120;2023-06-01T13:06:48;102581.31;;;12.23;100.00
22550;BME280;11441;57.164;-2.120;2023-06-01T13:09:14;102584.78;;;12.46;100.00
22550;BME280;11441;57.164;-2.120;2023-06-01T13:11:42;102587.84;;;12.44;100.00
22550;BME280;11441;57.164;-2.120;2023-06-01T13:14:09;102587.38;;;12.51;100.00
22550;BME280;11441;57.164;-2.120;2023-06-01T13:16:36;102578.47;;;12.63;100.00
22550;BME280;11441;57.164;-2.120;2023-06-01T13:19:03;102579.59;;;12.62;100.00
22550;BME280;11441;57.164;-2.120;2023-06-01T13:21:30;102587.22;;;12.56;100.00
22550;BME280;11441;57.164;-2.120;2023-06-01T13:24:00;102581.97;;;12.29;100.00
22550;BME280;11441;57.164;-2.120;2023-06-01T13:26:28;102582.34;;;12.44;100.00